sensor_id;sensor_type;location;lat;lon;timestamp;temperature;humidity
18721;DHT22;9489;50.948;3.114;2023-02-01T00:02:18;7.60;99.90
18721;DHT22;9489;50.948;3.114;2023-02-01T00:04:44;7.60;99.90
18721;DHT22;9489;50.948;3.114;2023-02-01T00:07:09;7.60;99.90
18721;DHT22;9489;50.948;3.114;2023-02-01T00:09:35;7.50;99.90
18721;DHT22;9489;50.948;3.114;2023-02-01T00:12:01;7.50;99.90
18721;DHT22;9489;50.948;3.114;2023-02-01T00:14:28;7.50;99.90
18721;DHT22;9489;50.948;3.114;2023-02-01T00:16:54;7.50;99.90
18721;DHT22;9489;50.948;3.114;2023-02-01T00:19:20;7.40;99.90
18721;DHT22;9489;50.948;3.114;2023-02-01T00:21:46;7.40;99.90
18721;DHT22;9489;50.948;3.114;2023-02-01T00:24:12;7.30;99.90
18721;DHT22;9489;50.948;3.114;2023-02-01T00:26:40;7.30;99.90
18721;DHT22;9489;50.948;3.114;2023-02-01T00:29:11;7.20;99.90
18721;DHT22;9489;50.948;3.114;2023-02-01T00:31:37;7.20;99.90
18721;DHT22;9489;50.948;3.114;2023-02-01T00:34:03;7.10;99.90
18721;DHT22;9489;50.948;3.114;2023-02-01T00:36:28;7.10;99.90
18721;DHT22;9489;50.948;3.114;2023-02-01T00:38:55;7.00;99.90
18721;DHT22;9489;50.948;3.114;2023-02-01T00:41:21;7.00;99.90
18721;DHT22;9489;50.948;3.114;2023-02-01T00:43:48;6.90;99.90
18721;DHT22;9489;50.948;3.114;2023-02-01T00:46:15;6.80;99.90
18721;DHT22;9489;50.948;3.114;2023-02-01T00:48:41;6.80;99.90
18721;DHT22;9489;50.948;3.114;2023-02-01T00:51:08;6.70;99.90
18721;DHT22;9489;50.948;3.114;2023-02-01T00:53:35;6.70;99.90
18721;DHT22;9489;50.948;3.114;2023-02-01T00:56:00;6.70;99.90
18721;DHT22;9489;50.948;3.114;2023-02-01T00:58:27;6.70;99.90
18721;DHT22;9489;50.948;3.114;2023-02-01T01:01:07;6.70;99.90
18721;DHT22;9489;50.948;3.114;2023-02-01T01:03:34;6.60;99.90
18721;DHT22;9489;50.948;3.114;2023-02-01T01:06:02;6.60;99.90
18721;DHT22;9489;50.948;3.114;2023-02-01T01:08:28;6.60;99.90
18721;DHT22;9489;50.948;3.114;2023-02-01T01:10:53;6.60;99.90
18721;DHT22;9489;50.948;3.114;2023-02-01T01:13:19;6.60;99.90
18721;DHT22;9489;50.948;3.114;2023-02-01T01:15:45;6.60;99.90
18721;DHT22;9489;50.948;3.114;2023-02-01T01:18:10;6.60;99.90
18721;DHT22;9489;50.948;3.114;2023-02-01T01:20:38;6.60;99.90
18721;DHT22;9489;50.948;3.114;2023-02-01T01:23:07;6.70;99.90
18721;DHT22;9489;50.948;3.114;2023-02-01T01:25:39;6.60;99.90
18721;DHT22;9489;50.948;3.114;2023-02-01T01:28:06;6.60;99.90
18721;DHT22;9489;50.948;3.114;2023-02-01T01:30:34;6.60;99.90
18721;DHT22;9489;50.948;3.114;2023-02-01T01:32:59;6.50;99.90
18721;DHT22;9489;50.948;3.114;2023-02-01T01:35:25;6.50;99.90
18721;DHT22;9489;50.948;3.114;2023-02-01T01:37:57;6.50;99.90
18721;DHT22;9489;50.948;3.114;2023-02-01T01:40:23;6.50;99.90
18721;DHT22;9489;50.948;3.114;2023-02-01T01:42:48;6.50;99.90
18721;DHT22;9489;50.948;3.114;2023-02-01T01:45:32;6.50;99.90
18721;DHT22;9489;50.948;3.114;2023-02-01T01:48:04;6.60;99.90
18721;DHT22;9489;50.948;3.114;2023-02-01T01:50:41;6.60;99.90
18721;DHT22;9489;50.948;3.114;2023-02-01T01:53:09;6.60;99.90
18721;DHT22;9489;50.948;3.114;2023-02-01T01:55:39;6.50;99.90
18721;DHT22;9489;50.948;3.114;2023-02-01T01:58:08;6.50;99.90
18721;DHT22;9489;50.948;3.114;2023-02-01T02:00:36;6.40;99.90
18721;DHT22;9489;50.948;3.114;2023-02-01T02:03:11;6.40;99.90
18721;DHT22;9489;50.948;3.114;2023-02-01T02:05:39;6.40;99.90
18721;DHT22;9489;50.948;3.114;2023-02-01T02:08:04;6.40;99.90
18721;DHT22;9489;50.948;3.114;2023-02-01T02:10:31;6.30;99.90
18721;DHT22;9489;50.948;3.114;2023-02-01T02:13:17;6.30;99.90
18721;DHT22;9489;50.948;3.114;2023-02-01T02:15:59;6.30;99.90
18721;DHT22;9489;50.948;3.114;2023-02-01T02:38:52;6.20;99.90
18721;DHT22;9489;50.948;3.114;2023-02-01T02:44:23;6.20;99.90
18721;DHT22;9489;50.948;3.114;2023-02-01T02:47:19;6.20;99.90
18721;DHT22;9489;50.948;3.114;2023-02-01T02:49:58;6.10;99.90
18721;DHT22;9489;50.948;3.114;2023-02-01T02:52:54;6.10;99.90
18721;DHT22;9489;50.948;3.114;2023-02-01T02:55:52;6.10;99.90
18721;DHT22;9489;50.948;3.114;2023-02-01T02:58:18;6.00;99.90
18721;DHT22;9489;50.948;3.114;2023-02-01T03:01:03;6.00;99.90
18721;DHT22;9489;50.948;3.114;2023-02-01T03:03:48;5.90;99.90
18721;DHT22;9489;50.948;3.114;2023-02-01T03:06:33;5.90;99.90
18721;DHT22;9489;50.948;3.114;2023-02-01T03:09:02;5.90;99.90
18721;DHT22;9489;50.948;3.114;2023-02-01T03:11:29;5.90;99.90
18721;DHT22;9489;50.948;3.114;2023-02-01T03:14:20;5.90;99.90
18721;DHT22;9489;50.948;3.114;2023-02-01T03:16:51;5.90;99.90
18721;DHT22;9489;50.948;3.114;2023-02-01T03:19:37;5.90;99.90
18721;DHT22;9489;50.948;3.114;2023-02-01T03:22:12;5.90;99.90
18721;DHT22;9489;50.948;3.114;2023-02-01T03:24:49;5.90;99.90
18721;DHT22;9489;50.948;3.114;2023-02-01T03:27:30;5.90;99.90
18721;DHT22;9489;50.948;3.114;2023-02-01T03:32:28;5.90;99.90
18721;DHT22;9489;50.948;3.114;2023-02-01T03:34:55;5.90;99.90
18721;DHT22;9489;50.948;3.114;2023-02-01T03:37:26;5.90;99.90
18721;DHT22;9489;50.948;3.114;2023-02-01T03:40:02;5.90;99.90
18721;DHT22;9489;50.948;3.114;2023-02-01T03:42:46;5.90;99.90
18721;DHT22;9489;50.948;3.114;2023-02-01T03:45:18;5.90;99.90
18721;DHT22;9489;50.948;3.114;2023-02-01T03:47:47;5.90;99.90
18721;DHT22;9489;50.948;3.114;2023-02-01T03:50:19;5.90;99.90
18721;DHT22;9489;50.948;3.114;2023-02-01T03:52:51;5.90;99.90
18721;DHT22;9489;50.948;3.114;2023-02-01T03:55:21;5.90;99.90
18721;DHT22;9489;50.948;3.114;2023-02-01T03:57:55;5.90;99.90
18721;DHT22;9489;50.948;3.114;2023-02-01T04:00:23;5.80;99.90
18721;DHT22;9489;50.948;3.114;2023-02-01T04:02:50;5.80;99.90
18721;DHT22;9489;50.948;3.114;2023-02-01T04:05:16;5.80;99.90
18721;DHT22;9489;50.948;3.114;2023-02-01T04:07:42;5.80;99.90
18721;DHT22;9489;50.948;3.114;2023-02-01T04:10:08;5.70;99.90
18721;DHT22;9489;50.948;3.114;2023-02-01T04:12:34;5.70;99.90
18721;DHT22;9489;50.948;3.114;2023-02-01T04:15:00;5.70;99.90
18721;DHT22;9489;50.948;3.114;2023-02-01T04:17:25;5.70;99.90
18721;DHT22;9489;50.948;3.114;2023-02-01T04:19:51;5.80;99.90
18721;DHT22;9489;50.948;3.114;2023-02-01T04:22:16;5.70;99.90
18721;DHT22;9489;50.948;3.114;2023-02-01T04:24:42;5.70;99.90
18721;DHT22;9489;50.948;3.114;2023-02-01T04:27:08;5.70;99.90
18721;DHT22;9489;50.948;3.114;2023-02-01T04:29:33;5.70;99.90
18721;DHT22;9489;50.948;3.114;2023-02-01T04:31:59;5.70;99.90
18721;DHT22;9489;50.948;3.114;2023-02-01T04:34:25;5.70;99.90
18721;DHT22;9489;50.948;3.114;2023-02-01T04:36:52;5.60;99.90
18721;DHT22;9489;50.948;3.114;2023-02-01T04:39:17;5.70;99.90
18721;DHT22;9489;50.948;3.114;2023-02-01T04:41:43;5.60;99.90
18721;DHT22;9489;50.948;3.114;2023-02-01T04:44:19;5.60;99.90
18721;DHT22;9489;50.948;3.114;2023-02-01T04:46:46;5.60;99.90
18721;DHT22;9489;50.948;3.114;2023-02-01T04:49:13;5.60;99.90
18721;DHT22;9489;50.948;3.114;2023-02-01T04:51:39;5.60;99.90
18721;DHT22;9489;50.948;3.114;2023-02-01T04:54:05;5.70;99.90
18721;DHT22;9489;50.948;3.114;2023-02-01T04:56:31;5.70;99.90
18721;DHT22;9489;50.948;3.114;2023-02-01T04:58:56;5.70;99.90
18721;DHT22;9489;50.948;3.114;2023-02-01T05:01:22;5.70;99.90
18721;DHT22;9489;50.948;3.114;2023-02-01T05:03:50;5.70;99.90
18721;DHT22;9489;50.948;3.114;2023-02-01T05:06:16;5.60;99.90
18721;DHT22;9489;50.948;3.114;2023-02-01T05:08:42;5.60;99.90
18721;DHT22;9489;50.948;3.114;2023-02-01T05:11:07;5.70;99.90
18721;DHT22;9489;50.948;3.114;2023-02-01T05:13:53;5.60;99.90
18721;DHT22;9489;50.948;3.114;2023-02-01T05:16:18;5.60;99.90
18721;DHT22;9489;50.948;3.114;2023-02-01T05:18:44;5.60;99.90
18721;DHT22;9489;50.948;3.114;2023-02-01T05:21:10;5.60;99.90
18721;DHT22;9489;50.948;3.114;2023-02-01T05:23:35;5.60;99.90
18721;DHT22;9489;50.948;3.114;2023-02-01T05:26:21;5.60;99.90
18721;DHT22;9489;50.948;3.114;2023-02-01T05:28:47;5.60;99.90
18721;DHT22;9489;50.948;3.114;2023-02-01T05:31:12;5.60;99.90
18721;DHT22;9489;50.948;3.114;2023-02-01T05:33:38;5.60;99.90
18721;DHT22;9489;50.948;3.114;2023-02-01T05:36:04;5.60;99.90
18721;DHT22;9489;50.948;3.114;2023-02-01T05:38:29;5.60;99.90
18721;DHT22;9489;50.948;3.114;2023-02-01T05:40:56;5.60;99.90
18721;DHT22;9489;50.948;3.114;2023-02-01T05:43:21;5.60;99.90
18721;DHT22;9489;50.948;3.114;2023-02-01T05:45:47;5.60;99.90
18721;DHT22;9489;50.948;3.114;2023-02-01T05:48:13;5.60;99.90
18721;DHT22;9489;50.948;3.114;2023-02-01T05:50:38;5.60;99.90
18721;DHT22;9489;50.948;3.114;2023-02-01T05:53:04;5.60;99.90
18721;DHT22;9489;50.948;3.114;2023-02-01T05:55:30;5.60;99.90
18721;DHT22;9489;50.948;3.114;2023-02-01T05:57:56;5.60;99.90
18721;DHT22;9489;50.948;3.114;2023-02-01T06:00:22;5.60;99.90
18721;DHT22;9489;50.948;3.114;2023-02-01T06:02:47;5.60;99.90
18721;DHT22;9489;50.948;3.114;2023-02-01T06:05:13;5.60;99.90
18721;DHT22;9489;50.948;3.114;2023-02-01T06:07:39;5.60;99.90
18721;DHT22;9489;50.948;3.114;2023-02-01T06:10:04;5.50;99.90
18721;DHT22;9489;50.948;3.114;2023-02-01T06:12:30;5.50;99.90
18721;DHT22;9489;50.948;3.114;2023-02-01T06:14:56;5.50;99.90
18721;DHT22;9489;50.948;3.114;2023-02-01T06:17:21;5.50;99.90
18721;DHT22;9489;50.948;3.114;2023-02-01T06:19:47;5.50;99.90
18721;DHT22;9489;50.948;3.114;2023-02-01T06:22:14;5.50;99.90
18721;DHT22;9489;50.948;3.114;2023-02-01T06:24:39;5.40;99.90
18721;DHT22;9489;50.948;3.114;2023-02-01T06:27:06;5.40;99.90
18721;DHT22;9489;50.948;3.114;2023-02-01T06:29:32;5.40;99.90
18721;DHT22;9489;50.948;3.114;2023-02-01T06:31:58;5.50;99.90
18721;DHT22;9489;50.948;3.114;2023-02-01T06:34:24;5.50;99.90
18721;DHT22;9489;50.948;3.114;2023-02-01T06:36:50;5.40;99.90
18721;DHT22;9489;50.948;3.114;2023-02-01T06:39:16;5.50;99.90
18721;DHT22;9489;50.948;3.114;2023-02-01T06:41:45;5.40;99.90
18721;DHT22;9489;50.948;3.114;2023-02-01T06:44:11;5.40;99.90
18721;DHT22;9489;50.948;3.114;2023-02-01T06:46:36;5.40;99.90
18721;DHT22;9489;50.948;3.114;2023-02-01T06:49:02;5.40;99.90
18721;DHT22;9489;50.948;3.114;2023-02-01T06:51:28;5.50;99.90
18721;DHT22;9489;50.948;3.114;2023-02-01T06:53:55;5.50;99.90
18721;DHT22;9489;50.948;3.114;2023-02-01T06:56:21;5.50;99.90
18721;DHT22;9489;50.948;3.114;2023-02-01T06:58:47;5.50;99.90
18721;DHT22;9489;50.948;3.114;2023-02-01T07:01:13;5.50;99.90
18721;DHT22;9489;50.948;3.114;2023-02-01T07:03:39;5.50;99.90
18721;DHT22;9489;50.948;3.114;2023-02-01T07:06:05;5.60;99.90
18721;DHT22;9489;50.948;3.114;2023-02-01T07:08:34;5.50;99.90
18721;DHT22;9489;50.948;3.114;2023-02-01T07:11:04;5.60;99.90
18721;DHT22;9489;50.948;3.114;2023-02-01T07:13:30;5.60;99.90
18721;DHT22;9489;50.948;3.114;2023-02-01T07:15:59;5.60;99.90
18721;DHT22;9489;50.948;3.114;2023-02-01T07:18:25;5.70;99.90
18721;DHT22;9489;50.948;3.114;2023-02-01T07:20:51;5.60;99.90
18721;DHT22;9489;50.948;3.114;2023-02-01T07:23:16;5.70;99.90
18721;DHT22;9489;50.948;3.114;2023-02-01T07:25:42;5.70;99.90
18721;DHT22;9489;50.948;3.114;2023-02-01T07:28:08;5.70;99.90
18721;DHT22;9489;50.948;3.114;2023-02-01T07:30:33;5.80;99.90
18721;DHT22;9489;50.948;3.114;2023-02-01T07:32:59;5.80;99.90
18721;DHT22;9489;50.948;3.114;2023-02-01T07:35:27;5.90;99.90
18721;DHT22;9489;50.948;3.114;2023-02-01T07:37:53;5.90;99.90
18721;DHT22;9489;50.948;3.114;2023-02-01T07:40:19;6.00;99.90
18721;DHT22;9489;50.948;3.114;2023-02-01T07:42:50;6.00;99.90
18721;DHT22;9489;50.948;3.114;2023-02-01T07:45:15;6.10;99.90
18721;DHT22;9489;50.948;3.114;2023-02-01T07:47:41;6.10;99.90
18721;DHT22;9489;50.948;3.114;2023-02-01T07:50:07;6.10;99.90
18721;DHT22;9489;50.948;3.114;2023-02-01T07:52:33;6.20;99.90
18721;DHT22;9489;50.948;3.114;2023-02-01T07:54:58;6.40;99.90
18721;DHT22;9489;50.948;3.114;2023-02-01T07:57:24;6.40;99.90
18721;DHT22;9489;50.948;3.114;2023-02-01T07:59:50;6.40;99.90
18721;DHT22;9489;50.948;3.114;2023-02-01T08:02:34;6.40;99.90
18721;DHT22;9489;50.948;3.114;2023-02-01T08:05:00;6.40;99.90
18721;DHT22;9489;50.948;3.114;2023-02-01T08:07:25;6.40;99.90
18721;DHT22;9489;50.948;3.114;2023-02-01T08:09:51;6.50;99.90
18721;DHT22;9489;50.948;3.114;2023-02-01T08:12:17;6.50;99.90
18721;DHT22;9489;50.948;3.114;2023-02-01T08:14:42;6.50;99.90
18721;DHT22;9489;50.948;3.114;2023-02-01T08:17:08;6.60;99.90
18721;DHT22;9489;50.948;3.114;2023-02-01T08:19:33;6.60;99.90
18721;DHT22;9489;50.948;3.114;2023-02-01T08:21:59;6.70;99.90
18721;DHT22;9489;50.948;3.114;2023-02-01T08:24:25;6.70;99.90
18721;DHT22;9489;50.948;3.114;2023-02-01T08:26:50;6.80;99.90
18721;DHT22;9489;50.948;3.114;2023-02-01T08:29:16;6.90;99.90
18721;DHT22;9489;50.948;3.114;2023-02-01T08:31:42;6.90;99.90
18721;DHT22;9489;50.948;3.114;2023-02-01T08:34:09;6.90;99.90
18721;DHT22;9489;50.948;3.114;2023-02-01T08:36:35;7.00;99.90
18721;DHT22;9489;50.948;3.114;2023-02-01T08:39:01;7.00;99.90
18721;DHT22;9489;50.948;3.114;2023-02-01T08:41:29;7.00;99.90
18721;DHT22;9489;50.948;3.114;2023-02-01T08:43:55;7.10;99.90
18721;DHT22;9489;50.948;3.114;2023-02-01T08:46:22;7.20;99.90
18721;DHT22;9489;50.948;3.114;2023-02-01T08:48:53;7.20;99.90
18721;DHT22;9489;50.948;3.114;2023-02-01T08:51:22;7.30;99.90
18721;DHT22;9489;50.948;3.114;2023-02-01T08:53:48;7.30;99.90
18721;DHT22;9489;50.948;3.114;2023-02-01T08:56:16;7.40;99.90
18721;DHT22;9489;50.948;3.114;2023-02-01T08:58:42;7.40;99.90
18721;DHT22;9489;50.948;3.114;2023-02-01T09:01:11;7.50;99.90
18721;DHT22;9489;50.948;3.114;2023-02-01T09:03:37;7.60;99.90
18721;DHT22;9489;50.948;3.114;2023-02-01T09:06:05;7.60;99.90
18721;DHT22;9489;50.948;3.114;2023-02-01T09:08:31;7.70;99.90
18721;DHT22;9489;50.948;3.114;2023-02-01T09:11:01;7.80;99.90
18721;DHT22;9489;50.948;3.114;2023-02-01T09:13:28;7.80;99.90
18721;DHT22;9489;50.948;3.114;2023-02-01T09:15:53;7.90;99.90
18721;DHT22;9489;50.948;3.114;2023-02-01T09:18:19;7.90;99.90
18721;DHT22;9489;50.948;3.114;2023-02-01T09:20:45;8.00;99.90
18721;DHT22;9489;50.948;3.114;2023-02-01T09:23:10;8.10;99.90
18721;DHT22;9489;50.948;3.114;2023-02-01T09:25:39;8.20;99.90
18721;DHT22;9489;50.948;3.114;2023-02-01T09:28:05;8.30;99.90
18721;DHT22;9489;50.948;3.114;2023-02-01T09:30:36;8.70;99.90
18721;DHT22;9489;50.948;3.114;2023-02-01T09:33:02;9.20;99.90
18721;DHT22;9489;50.948;3.114;2023-02-01T09:35:28;9.80;99.90
18721;DHT22;9489;50.948;3.114;2023-02-01T09:37:54;10.30;99.90
18721;DHT22;9489;50.948;3.114;2023-02-01T09:40:20;10.80;99.90
18721;DHT22;9489;50.948;3.114;2023-02-01T09:47:53;11.50;99.90
18721;DHT22;9489;50.948;3.114;2023-02-01T09:50:28;11.80;99.90
18721;DHT22;9489;50.948;3.114;2023-02-01T09:53:04;12.10;99.90
18721;DHT22;9489;50.948;3.114;2023-02-01T09:55:36;12.60;99.90
18721;DHT22;9489;50.948;3.114;2023-02-01T10:00:52;12.30;99.90
18721;DHT22;9489;50.948;3.114;2023-02-01T10:03:18;11.70;99.90
18721;DHT22;9489;50.948;3.114;2023-02-01T10:22:43;10.70;99.90
18721;DHT22;9489;50.948;3.114;2023-02-01T10:25:55;10.60;99.90
18721;DHT22;9489;50.948;3.114;2023-02-01T10:28:02;10.50;99.90
18721;DHT22;9489;50.948;3.114;2023-02-01T10:30:39;10.40;99.90
18721;DHT22;9489;50.948;3.114;2023-02-01T10:33:18;10.40;99.90
18721;DHT22;9489;50.948;3.114;2023-02-01T10:35:45;10.20;99.90
18721;DHT22;9489;50.948;3.114;2023-02-01T10:38:30;10.10;99.90
18721;DHT22;9489;50.948;3.114;2023-02-01T10:41:21;10.10;99.90
18721;DHT22;9489;50.948;3.114;2023-02-01T10:43:53;10.20;99.90
18721;DHT22;9489;50.948;3.114;2023-02-01T10:46:20;10.20;99.90
18721;DHT22;9489;50.948;3.114;2023-02-01T10:48:49;10.10;99.90
18721;DHT22;9489;50.948;3.114;2023-02-01T10:51:24;10.10;99.90
18721;DHT22;9489;50.948;3.114;2023-02-01T10:53:52;10.10;99.90
18721;DHT22;9489;50.948;3.114;2023-02-01T10:56:26;10.20;99.90
18721;DHT22;9489;50.948;3.114;2023-02-01T10:59:00;10.40;99.90
18721;DHT22;9489;50.948;3.114;2023-02-01T11:01:41;10.70;99.90
18721;DHT22;9489;50.948;3.114;2023-02-01T11:04:11;11.00;99.90
18721;DHT22;9489;50.948;3.114;2023-02-01T11:06:40;11.20;99.90
18721;DHT22;9489;50.948;3.114;2023-02-01T11:14:15;11.70;99.90
18721;DHT22;9489;50.948;3.114;2023-02-01T11:16:50;11.90;99.90
18721;DHT22;9489;50.948;3.114;2023-02-01T11:19:17;12.40;99.90
18721;DHT22;9489;50.948;3.114;2023-02-01T11:21:44;12.80;99.90
18721;DHT22;9489;50.948;3.114;2023-02-01T11:26:48;13.30;99.90
18721;DHT22;9489;50.948;3.114;2023-02-01T11:29:17;13.20;99.90
18721;DHT22;9489;50.948;3.114;2023-02-01T11:31:45;13.10;99.90
18721;DHT22;9489;50.948;3.114;2023-02-01T11:34:16;12.80;99.90
18721;DHT22;9489;50.948;3.114;2023-02-01T11:36:42;12.70;99.90
18721;DHT22;9489;50.948;3.114;2023-02-01T11:42:16;13.10;99.90
18721;DHT22;9489;50.948;3.114;2023-02-01T11:44:41;13.20;99.90
18721;DHT22;9489;50.948;3.114;2023-02-01T11:49:45;13.70;99.90
18721;DHT22;9489;50.948;3.114;2023-02-01T11:52:33;13.60;99.90
18721;DHT22;9489;50.948;3.114;2023-02-01T12:17:06;14.20;99.90
18721;DHT22;9489;50.948;3.114;2023-02-01T12:22:21;14.00;99.90
18721;DHT22;9489;50.948;3.114;2023-02-01T12:24:51;13.40;99.90
18721;DHT22;9489;50.948;3.114;2023-02-01T12:27:55;13.50;99.90
18721;DHT22;9489;50.948;3.114;2023-02-01T12:30:39;13.90;99.90
18721;DHT22;9489;50.948;3.114;2023-02-01T12:33:30;14.60;99.90
18721;DHT22;9489;50.948;3.114;2023-02-01T12:41:18;14.70;99.90
18721;DHT22;9489;50.948;3.114;2023-02-01T12:43:49;14.70;99.90
18721;DHT22;9489;50.948;3.114;2023-02-01T12:51:34;13.50;99.90
18721;DHT22;9489;50.948;3.114;2023-02-01T12:54:02;13.00;99.90
18721;DHT22;9489;50.948;3.114;2023-02-01T12:56:43;12.50;99.90
18721;DHT22;9489;50.948;3.114;2023-02-01T12:59:28;12.10;99.90
18721;DHT22;9489;50.948;3.114;2023-02-01T13:02:21;11.90;99.90
18721;DHT22;9489;50.948;3.114;2023-02-01T13:15:39;12.00;99.90
18721;DHT22;9489;50.948;3.114;2023-02-01T13:18:09;12.00;99.90
18721;DHT22;9489;50.948;3.114;2023-02-01T13:20:50;12.10;99.90
18721;DHT22;9489;50.948;3.114;2023-02-01T13:23:22;12.30;99.90
18721;DHT22;9489;50.948;3.114;2023-02-01T13:25:51;12.50;99.90
18721;DHT22;9489;50.948;3.114;2023-02-01T13:42:01;11.60;99.90
18721;DHT22;9489;50.948;3.114;2023-02-01T13:44:57;11.50;99.90
18721;DHT22;9489;50.948;3.114;2023-02-01T13:49:53;11.40;99.90
18721;DHT22;9489;50.948;3.114;2023-02-01T13:52:40;11.40;99.90
18721;DHT22;9489;50.948;3.114;2023-02-01T13:57:45;11.40;99.90
18721;DHT22;9489;50.948;3.114;2023-02-01T14:10:59;11.50;99.90
18721;DHT22;9489;50.948;3.114;2023-02-01T14:13:35;11.50;99.90
18721;DHT22;9489;50.948;3.114;2023-02-01T14:34:48;10.90;99.90
18721;DHT22;9489;50.948;3.114;2023-02-01T14:42:25;10.70;99.90
18721;DHT22;9489;50.948;3.114;2023-02-01T14:44:53;10.60;99.90
18721;DHT22;9489;50.948;3.114;2023-02-01T14:49:57;10.60;99.90
18721;DHT22;9489;50.948;3.114;2023-02-01T14:52:36;10.50;99.90
18721;DHT22;9489;50.948;3.114;2023-02-01T14:55:12;10.50;99.90
18721;DHT22;9489;50.948;3.114;2023-02-01T14:57:40;10.40;99.90
18721;DHT22;9489;50.948;3.114;2023-02-01T15:00:29;10.30;99.90
18721;DHT22;9489;50.948;3.114;2023-02-01T15:03:22;10.30;99.90
18721;DHT22;9489;50.948;3.114;2023-02-01T15:05:58;10.20;99.90
18721;DHT22;9489;50.948;3.114;2023-02-01T15:08:30;10.10;99.90
18721;DHT22;9489;50.948;3.114;2023-02-01T15:10:59;10.10;99.90
18721;DHT22;9489;50.948;3.114;2023-02-01T15:13:28;10.10;99.90
18721;DHT22;9489;50.948;3.114;2023-02-01T15:16:20;10.00;99.90
18721;DHT22;9489;50.948;3.114;2023-02-01T15:18:47;10.00;99.90
18721;DHT22;9489;50.948;3.114;2023-02-01T15:21:21;9.90;99.90
18721;DHT22;9489;50.948;3.114;2023-02-01T15:23:47;9.80;99.90
18721;DHT22;9489;50.948;3.114;2023-02-01T15:26:31;9.80;99.90
18721;DHT22;9489;50.948;3.114;2023-02-01T15:28:58;9.80;99.90
18721;DHT22;9489;50.948;3.114;2023-02-01T15:31:43;9.80;99.90
18721;DHT22;9489;50.948;3.114;2023-02-01T15:34:10;9.70;99.90
18721;DHT22;9489;50.948;3.114;2023-02-01T15:36:36;9.80;99.90
18721;DHT22;9489;50.948;3.114;2023-02-01T15:39:24;9.80;99.90
18721;DHT22;9489;50.948;3.114;2023-02-01T15:42:08;9.70;99.90
18721;DHT22;9489;50.948;3.114;2023-02-01T15:47:13;9.70;99.90
18721;DHT22;9489;50.948;3.114;2023-02-01T15:49:41;9.70;99.90
18721;DHT22;9489;50.948;3.114;2023-02-01T15:52:32;9.70;99.90
18721;DHT22;9489;50.948;3.114;2023-02-01T15:57:45;9.70;99.90
18721;DHT22;9489;50.948;3.114;2023-02-01T16:00:27;9.60;99.90
18721;DHT22;9489;50.948;3.114;2023-02-01T16:02:58;9.60;99.90
18721;DHT22;9489;50.948;3.114;2023-02-01T16:05:37;9.60;99.90
18721;DHT22;9489;50.948;3.114;2023-02-01T16:10:41;9.50;99.90
18721;DHT22;9489;50.948;3.114;2023-02-01T16:13:08;9.50;99.90
18721;DHT22;9489;50.948;3.114;2023-02-01T16:15:34;9.50;99.90
18721;DHT22;9489;50.948;3.114;2023-02-01T16:18:00;9.40;99.90
18721;DHT22;9489;50.948;3.114;2023-02-01T16:20:26;9.40;99.90
18721;DHT22;9489;50.948;3.114;2023-02-01T16:22:52;9.40;99.90
18721;DHT22;9489;50.948;3.114;2023-02-01T16:25:17;9.40;99.90
18721;DHT22;9489;50.948;3.114;2023-02-01T16:27:43;9.40;99.90
18721;DHT22;9489;50.948;3.114;2023-02-01T16:30:09;9.40;99.90
18721;DHT22;9489;50.948;3.114;2023-02-01T16:32:36;9.30;99.90
18721;DHT22;9489;50.948;3.114;2023-02-01T16:35:15;9.30;99.90
18721;DHT22;9489;50.948;3.114;2023-02-01T16:37:44;9.30;99.90
18721;DHT22;9489;50.948;3.114;2023-02-01T16:40:14;9.30;99.90
18721;DHT22;9489;50.948;3.114;2023-02-01T16:42:40;9.30;99.90
18721;DHT22;9489;50.948;3.114;2023-02-01T16:45:07;9.20;99.90
18721;DHT22;9489;50.948;3.114;2023-02-01T16:47:36;9.20;99.90
18721;DHT22;9489;50.948;3.114;2023-02-01T16:50:03;9.20;99.90
18721;DHT22;9489;50.948;3.114;2023-02-01T16:52:28;9.20;99.90
18721;DHT22;9489;50.948;3.114;2023-02-01T16:54:54;9.20;99.90
18721;DHT22;9489;50.948;3.114;2023-02-01T16:57:20;9.20;99.90
18721;DHT22;9489;50.948;3.114;2023-02-01T16:59:49;9.10;99.90
18721;DHT22;9489;50.948;3.114;2023-02-01T17:02:17;9.10;99.90
18721;DHT22;9489;50.948;3.114;2023-02-01T17:04:45;9.10;99.90
18721;DHT22;9489;50.948;3.114;2023-02-01T17:07:15;9.10;99.90
18721;DHT22;9489;50.948;3.114;2023-02-01T17:09:42;9.20;99.90
18721;DHT22;9489;50.948;3.114;2023-02-01T17:12:29;9.20;99.90
18721;DHT22;9489;50.948;3.114;2023-02-01T17:14:56;9.20;99.90
18721;DHT22;9489;50.948;3.114;2023-02-01T17:17:23;9.20;99.90
18721;DHT22;9489;50.948;3.114;2023-02-01T17:19:51;9.20;99.90
18721;DHT22;9489;50.948;3.114;2023-02-01T17:22:21;9.20;99.90
18721;DHT22;9489;50.948;3.114;2023-02-01T17:24:47;9.20;99.90
18721;DHT22;9489;50.948;3.114;2023-02-01T17:27:13;9.20;99.90
18721;DHT22;9489;50.948;3.114;2023-02-01T17:29:39;9.20;99.90
18721;DHT22;9489;50.948;3.114;2023-02-01T17:32:05;9.20;99.90
18721;DHT22;9489;50.948;3.114;2023-02-01T17:34:34;9.20;99.90
18721;DHT22;9489;50.948;3.114;2023-02-01T17:37:00;9.20;99.90
18721;DHT22;9489;50.948;3.114;2023-02-01T17:39:26;9.20;99.90
18721;DHT22;9489;50.948;3.114;2023-02-01T17:42:11;9.20;99.90
18721;DHT22;9489;50.948;3.114;2023-02-01T17:44:36;9.20;99.90
18721;DHT22;9489;50.948;3.114;2023-02-01T17:47:02;9.20;99.90
18721;DHT22;9489;50.948;3.114;2023-02-01T17:49:29;9.20;99.90
18721;DHT22;9489;50.948;3.114;2023-02-01T17:51:58;9.20;99.90
18721;DHT22;9489;50.948;3.114;2023-02-01T17:54:24;9.20;99.90
18721;DHT22;9489;50.948;3.114;2023-02-01T17:56:50;9.20;99.90
18721;DHT22;9489;50.948;3.114;2023-02-01T17:59:16;9.20;99.90
18721;DHT22;9489;50.948;3.114;2023-02-01T18:01:42;9.20;99.90
18721;DHT22;9489;50.948;3.114;2023-02-01T18:04:12;9.20;99.90
18721;DHT22;9489;50.948;3.114;2023-02-01T18:06:40;9.20;99.90
18721;DHT22;9489;50.948;3.114;2023-02-01T18:09:06;9.20;99.90
18721;DHT22;9489;50.948;3.114;2023-02-01T18:11:32;9.20;99.90
18721;DHT22;9489;50.948;3.114;2023-02-01T18:13:58;9.20;99.90
18721;DHT22;9489;50.948;3.114;2023-02-01T18:16:29;9.20;99.90
18721;DHT22;9489;50.948;3.114;2023-02-01T18:18:55;9.10;99.90
18721;DHT22;9489;50.948;3.114;2023-02-01T18:21:33;9.10;99.90
18721;DHT22;9489;50.948;3.114;2023-02-01T18:24:02;9.10;99.90
18721;DHT22;9489;50.948;3.114;2023-02-01T18:26:28;9.10;99.90
18721;DHT22;9489;50.948;3.114;2023-02-01T18:28:54;9.10;99.90
18721;DHT22;9489;50.948;3.114;2023-02-01T18:31:27;9.10;99.90
18721;DHT22;9489;50.948;3.114;2023-02-01T18:33:56;9.10;99.90
18721;DHT22;9489;50.948;3.114;2023-02-01T18:36:22;9.10;99.90
18721;DHT22;9489;50.948;3.114;2023-02-01T18:38:48;9.10;99.90
18721;DHT22;9489;50.948;3.114;2023-02-01T18:41:16;9.10;99.90
18721;DHT22;9489;50.948;3.114;2023-02-01T18:43:42;9.10;99.90
18721;DHT22;9489;50.948;3.114;2023-02-01T18:46:09;9.10;99.90
18721;DHT22;9489;50.948;3.114;2023-02-01T18:48:35;9.10;99.90
18721;DHT22;9489;50.948;3.114;2023-02-01T18:51:01;9.10;99.90
18721;DHT22;9489;50.948;3.114;2023-02-01T18:53:27;9.10;99.90
18721;DHT22;9489;50.948;3.114;2023-02-01T18:55:54;9.10;99.90
18721;DHT22;9489;50.948;3.114;2023-02-01T18:58:20;9.10;99.90
18721;DHT22;9489;50.948;3.114;2023-02-01T19:00:46;9.10;99.90
18721;DHT22;9489;50.948;3.114;2023-02-01T19:03:12;9.10;99.90
18721;DHT22;9489;50.948;3.114;2023-02-01T19:05:38;9.10;99.90
18721;DHT22;9489;50.948;3.114;2023-02-01T19:08:04;9.10;99.90
18721;DHT22;9489;50.948;3.114;2023-02-01T19:10:30;9.10;99.90